Terminal Aerodrome Forecast
Issued by NWS

Home | Current Version | Previous Version | Graphics & Text | Print | Product List | Glossary On
Versions: 1 2 3 4 5 6 7 8 9 10 11 12 13 14 15 16
000
FTUS43 KFGF 162320
TAFBJI
TAF
KBJI 162320Z 1700/1724 14016G24KT P6SM OVC035
     FM170200 14016G24KT P6SM OVC030
     FM170300 14015G24KT P6SM OVC015
     FM170900 15010KT P6SM OVC020
     FM171700 25006KT P6SM BKN015
     FM171900 28006KT P6SM BKN030
     FM172100 31006KT P6SM BKN080=

USA.gov is the U.S. government's official web portal to all federal, state and local government web resources and services.